Time;durP1;ratioP1;P1;durP2;ratioP2;P2;SDS_P1;SDS_P2;PMS_P1;PMS_P2;Temp;Humidity;BMP_temperature;BMP_pressure;BME280_temperature;BME280_humidity;BME280_pressure;Samples;Min_cycle;Max_cycle;Signal;HPM_P1;HPM_P2
2022/05/25 00:00:39;;;;;;;;;;;;;;;;;;5009499;28;19910;-66
2022/05/25 00:03:05;;;;;;;;;;;;;;;;;;5009964;28;19914;-64
2022/05/25 00:05:31;;;;;;;;;;;;;;;;;;5009877;28;19917;-65
2022/05/25 00:07:57;;;;;;;;;;;;;;;;;;5009572;28;20361;-66
2022/05/25 00:10:23;;;;;;;;;;;;;;;;;;5009335;28;20001;-65
2022/05/25 00:12:49;;;;;;;;;;;;;;;;;;5009647;28;19949;-64
2022/05/25 00:15:15;;;;;;;;;;;;;;;;;;5009754;28;19914;-66
2022/05/25 00:17:40;;;;;;;;;;;;;;;;;;5009590;28;19929;-65
2022/05/25 00:20:06;;;;;;;;;;;;;;;;;;5009247;28;19960;-67
2022/05/25 00:22:32;;;;;;;;;;;;;;;;;;5009607;28;19917;-66
2022/05/25 00:24:58;;;;;;;;;;;;;;;;;;5009468;28;19921;-66
2022/05/25 00:27:24;;;;;;;;;;;;;;;;;;5009586;28;19964;-63
2022/05/25 00:29:50;;;;;;;;;;;;;;;;;;5009105;28;20342;-66
2022/05/25 00:32:16;;;;;;;;;;;;;;;;;;5009515;28;20328;-64
2022/05/25 00:34:42;;;;;;;;;;;;;;;;;;5009415;28;19960;-64
2022/05/25 00:37:08;;;;;;;;;;;;;;;;;;5008865;28;19916;-65
2022/05/25 00:39:35;;;;;;;;;;;;;;;;;;5008916;28;19916;-65
2022/05/25 00:42:01;;;;;;;;;;;;;;;;;;5009338;28;19910;-64
2022/05/25 00:44:27;;;;;;;;;;;;;;;;;;5009440;28;19910;-63
2022/05/25 00:46:53;;;;;;;;;;;;;;;;;;5009318;28;19916;-66
2022/05/25 00:49:19;;;;;;;;;;;;;;;;;;5008750;28;19918;-68
2022/05/25 00:51:45;;;;;;;;;;;;;;;;;;5009388;28;19936;-68
2022/05/25 00:54:11;;;;;;;;;;;;;;;;;;5009495;28;19914;-68
2022/05/25 00:56:37;;;;;;;;;;;;;;;;;;5009195;28;19925;-64
2022/05/25 00:59:03;;;;;;;;;;;;;;;;;;5008822;28;20375;-67
2022/05/25 01:01:29;;;;;;;;;;;;;;;;;;5009296;28;19963;-66
2022/05/25 01:03:55;;;;;;;;;;;;;;;;;;5008981;28;19913;-66
2022/05/25 01:06:21;;;;;;;;;;;;;;;;;;5009174;28;19917;-66
2022/05/25 01:08:47;;;;;;;;;;;;;;;;;;5008601;28;19952;-65
2022/05/25 01:11:13;;;;;;;;;;;;;;;;;;5009207;28;19913;-63
2022/05/25 01:13:39;;;;;;;;;;;;;;;;;;5009104;28;20358;-63
2022/05/25 01:16:07;;;;;;;;;;;;;;;;;;5009018;28;19917;-65
2022/05/25 01:18:33;;;;;;;;;;;;;;;;;;5008574;28;20346;-65
2022/05/25 01:20:59;;;;;;;;;;;;;;;;;;5008867;28;20267;-67
2022/05/25 01:23:25;;;;;;;;;;;;;;;;;;5009207;28;19910;-63
2022/05/25 01:25:51;;;;;;;;;;;;;;;;;;5009005;28;20373;-65
2022/05/25 01:28:17;;;;;;;;;;;;;;;;;;5008922;28;20260;-67
2022/05/25 01:30:42;;;;;;;;;;;;;;;;;;5008455;28;19933;-64
2022/05/25 01:33:08;;;;;;;;;;;;;;;;;;5008875;28;19909;-67
2022/05/25 01:35:34;;;;;;;;;;;;;;;;;;5008869;28;19909;-65
2022/05/25 01:38:00;;;;;;;;;;;;;;;;;;5008905;28;19956;-63
2022/05/25 01:40:26;;;;;;;;;;;;;;;;;;5008317;28;19917;-66
2022/05/25 01:42:52;;;;;;;;;;;;;;;;;;5008856;28;20004;-64
2022/05/25 01:45:18;;;;;;;;;;;;;;;;;;5008958;28;19925;-65
2022/05/25 01:47:44;;;;;;;;;;;;;;;;;;5010925;28;19910;-67
2022/05/25 01:50:10;;;;;;;;;;;;;;;;;;5011922;28;19910;-66
2022/05/25 01:52:37;;;;;;;;;;;;;;;;;;5012368;28;19953;-65
2022/05/25 01:55:03;;;;;;;;;;;;;;;;;;5012302;28;19961;-66
2022/05/25 01:57:28;;;;;;;;;;;;;;;;;;5012428;28;20015;-66
2022/05/25 01:59:54;;;;;;;;;;;;;;;;;;5011958;28;20299;-65
2022/05/25 02:05:05;;;;;;;;;;;;;;;;;;4997180;28;19963;-68
2022/05/25 02:07:31;;;;;;;;;;;;;;;;;;5011975;28;19911;-66
2022/05/25 02:09:58;;;;;;;;;;;;;;;;;;5011458;28;19910;-68
2022/05/25 02:12:24;;;;;;;;;;;;;;;;;;5011861;28;19914;-67
2022/05/25 02:14:50;;;;;;;;;;;;;;;;;;5012027;28;19917;-69
2022/05/25 02:17:17;;;;;;;;;;;;;;;;;;5011877;28;19910;-65
2022/05/25 02:19:43;;;;;;;;;;;;;;;;;;5011427;28;19910;-66
2022/05/25 02:22:09;;;;;;;;;;;;;;;;;;5011921;28;19953;-63
2022/05/25 02:24:35;;;;;;;;;;;;;;;;;;5011733;28;19964;-68
2022/05/25 02:27:01;;;;;;;;;;;;;;;;;;4996590;28;19909;-68
2022/05/25 02:29:27;;;;;;;;;;;;;;;;;;5011132;28;19945;-65
2022/05/25 02:31:53;;;;;;;;;;;;;;;;;;5011592;28;19965;-65
2022/05/25 02:34:20;;;;;;;;;;;;;;;;;;5011583;28;20362;-65
2022/05/25 02:36:46;;;;;;;;;;;;;;;;;;5011438;28;19949;-64
2022/05/25 02:39:12;;;;;;;;;;;;;;;;;;5011062;28;19948;-65
2022/05/25 02:41:38;;;;;;;;;;;;;;;;;;5011401;28;19918;-66
2022/05/25 02:44:04;;;;;;;;;;;;;;;;;;5011376;28;19916;-67
2022/05/25 02:46:30;;;;;;;;;;;;;;;;;;5011391;28;19909;-65
2022/05/25 02:48:56;;;;;;;;;;;;;;;;;;5010760;28;19996;-64
2022/05/25 02:51:22;;;;;;;;;;;;;;;;;;5011355;28;20322;-64
2022/05/25 02:53:48;;;;;;;;;;;;;;;;;;5011189;28;19913;-67
2022/05/25 02:56:14;;;;;;;;;;;;;;;;;;5010881;28;19924;-66
2022/05/25 02:58:40;;;;;;;;;;;;;;;;;;5009892;28;19949;-66
2022/05/25 03:01:06;;;;;;;;;;;;;;;;;;5011131;28;19910;-67
2022/05/25 03:03:31;;;;;;;;;;;;;;;;;;5011030;28;20283;-64
2022/05/25 03:05:57;;;;;;;;;;;;;;;;;;5011079;28;19909;-64
2022/05/25 03:08:24;;;;;;;;;;;;;;;;;;5010646;28;19916;-64
2022/05/25 03:10:50;;;;;;;;;;;;;;;;;;5010446;28;19969;-65
2022/05/25 03:13:16;;;;;;;;;;;;;;;;;;5010948;28;19910;-66
2022/05/25 03:15:42;;;;;;;;;;;;;;;;;;5010713;28;20413;-66
2022/05/25 03:18:08;;;;;;;;;;;;;;;;;;5010660;28;19913;-65
2022/05/25 03:20:34;;;;;;;;;;;;;;;;;;5010360;28;19910;-66
2022/05/25 03:23:00;;;;;;;;;;;;;;;;;;5010651;28;19969;-65
2022/05/25 03:25:25;;;;;;;;;;;;;;;;;;5010724;28;20285;-64
2022/05/25 03:27:51;;;;;;;;;;;;;;;;;;5010329;28;19910;-66
2022/05/25 03:30:17;;;;;;;;;;;;;;;;;;5010137;28;19965;-68
2022/05/25 03:32:43;;;;;;;;;;;;;;;;;;5010378;28;19957;-64
2022/05/25 03:35:09;;;;;;;;;;;;;;;;;;5010381;28;20042;-64
2022/05/25 03:37:35;;;;;;;;;;;;;;;;;;5010292;28;19910;-66
2022/05/25 03:40:01;;;;;;;;;;;;;;;;;;5009838;28;19910;-66
2022/05/25 03:42:27;;;;;;;;;;;;;;;;;;5010203;28;19964;-65
2022/05/25 03:44:53;;;;;;;;;;;;;;;;;;5010373;28;19910;-64
2022/05/25 03:47:19;;;;;;;;;;;;;;;;;;5010418;28;19917;-67
2022/05/25 03:49:46;;;;;;;;;;;;;;;;;;5009718;28;19913;-66
2022/05/25 03:52:12;;;;;;;;;;;;;;;;;;5010131;28;19952;-67
2022/05/25 03:54:38;;;;;;;;;;;;;;;;;;5009903;28;19945;-69
2022/05/25 03:57:04;;;;;;;;;;;;;;;;;;5010169;28;19914;-68
2022/05/25 03:59:30;;;;;;;;;;;;;;;;;;5009357;28;19917;-68
2022/05/25 04:01:56;;;;;;;;;;;;;;;;;;5009887;28;19968;-69
2022/05/25 04:04:22;;;;;;;;;;;;;;;;;;5009985;28;19909;-68
2022/05/25 04:06:47;;;;;;;;;;;;;;;;;;5009804;28;19916;-69
2022/05/25 04:09:13;;;;;;;;;;;;;;;;;;5009423;28;19909;-67
2022/05/25 04:11:39;;;;;;;;;;;;;;;;;;5008790;28;19966;-69
2022/05/25 04:14:05;;;;;;;;;;;;;;;;;;5009888;28;19910;-68
2022/05/25 04:16:32;;;;;;;;;;;;;;;;;;5009785;28;19917;-67
2022/05/25 04:18:57;;;;;;;;;;;;;;;;;;5009049;28;20362;-66
2022/05/25 04:21:23;;;;;;;;;;;;;;;;;;5009555;28;20016;-66
2022/05/25 04:23:49;;;;;;;;;;;;;;;;;;4994663;28;19913;-68
2022/05/25 04:26:15;;;;;;;;;;;;;;;;;;5009591;28;20366;-68
2022/05/25 04:28:41;;;;;;;;;;;;;;;;;;5009024;28;20377;-65
2022/05/25 04:31:07;;;;;;;;;;;;;;;;;;5009332;28;20323;-66
2022/05/25 04:33:35;;;;;;;;;;;;;;;;;;5009533;28;19910;-68
2022/05/25 04:36:01;;;;;;;;;;;;;;;;;;5009420;28;19906;-68
2022/05/25 04:38:27;;;;;;;;;;;;;;;;;;5008904;28;19992;-69
2022/05/25 04:40:52;;;;;;;;;;;;;;;;;;5009335;28;19953;-64
2022/05/25 04:43:18;;;;;;;;;;;;;;;;;;5009419;28;19921;-65
2022/05/25 04:45:44;;;;;;;;;;;;;;;;;;5009280;28;19968;-62
2022/05/25 04:48:12;;;;;;;;;;;;;;;;;;5009306;28;19964;-65
2022/05/25 04:50:41;;;;;;;;;;;;;;;;;;5008880;28;19910;-67
2022/05/25 04:53:07;;;;;;;;;;;;;;;;;;5009042;28;20346;-67
2022/05/25 04:58:18;;;;;;;;;;;;;;;;;;4993931;28;19980;-64
2022/05/25 05:00:44;;;;;;;;;;;;;;;;;;5008559;28;20256;-68
2022/05/25 05:03:10;;;;;;;;;;;;;;;;;;5009085;28;19967;-67
2022/05/25 05:05:36;;;;;;;;;;;;;;;;;;5009147;28;20298;-67
2022/05/25 05:08:01;;;;;;;;;;;;;;;;;;5009009;28;19910;-64
2022/05/25 05:10:27;;;;;;;;;;;;;;;;;;5008703;28;19917;-64
2022/05/25 05:12:53;;;;;;;;;;;;;;;;;;5008970;28;19965;-65
2022/05/25 05:15:21;;;;;;;;;;;;;;;;;;5009081;28;19910;-66
2022/05/25 05:17:47;;;;;;;;;;;;;;;;;;5008898;28;20008;-63
2022/05/25 05:20:15;;;;;;;;;;;;;;;;;;5007827;28;20394;-65
2022/05/25 05:22:41;;;;;;;;;;;;;;;;;;5011095;28;20337;-68
2022/05/25 05:25:07;;;;;;;;;;;;;;;;;;5012876;28;19910;-67
2022/05/25 05:27:33;;;;;;;;;;;;;;;;;;5012626;28;19914;-64
2022/05/25 05:29:59;;;;;;;;;;;;;;;;;;5012307;28;20290;-64
2022/05/25 05:32:25;;;;;;;;;;;;;;;;;;5012807;28;20323;-65
2022/05/25 05:34:51;;;;;;;;;;;;;;;;;;5012720;28;19910;-67
2022/05/25 05:37:17;;;;;;;;;;;;;;;;;;5012636;28;20275;-63
2022/05/25 05:39:43;;;;;;;;;;;;;;;;;;5012155;28;19913;-65
2022/05/25 05:42:09;;;;;;;;;;;;;;;;;;5012626;28;19976;-65
2022/05/25 05:44:35;;;;;;;;;;;;;;;;;;5012519;28;19914;-66
2022/05/25 05:47:01;;;;;;;;;;;;;;;;;;5012434;28;19910;-63
2022/05/25 05:49:27;;;;;;;;;;;;;;;;;;5011886;28;20349;-65
2022/05/25 05:51:53;;;;;;;;;;;;;;;;;;5012317;28;19918;-64
2022/05/25 05:54:19;;;;;;;;;;;;;;;;;;5012202;28;20298;-64
2022/05/25 05:56:45;;;;;;;;;;;;;;;;;;5012095;28;20274;-64
2022/05/25 05:59:11;;;;;;;;;;;;;;;;;;5011568;28;19956;-66
2022/05/25 06:01:37;;;;;;;;;;;;;;;;;;5012151;28;19910;-65
2022/05/25 06:04:03;;;;;;;;;;;;;;;;;;5012202;28;19910;-68
2022/05/25 06:06:29;;;;;;;;;;;;;;;;;;5012250;28;19968;-62
2022/05/25 06:08:56;;;;;;;;;;;;;;;;;;5011732;28;19934;-64
2022/05/25 06:11:22;;;;;;;;;;;;;;;;;;5012169;28;19914;-65
2022/05/25 06:13:48;;;;;;;;;;;;;;;;;;5012120;28;19941;-66
2022/05/25 06:21:44;;;;;;;;;;;;;;;;;;4997034;28;19965;-64
2022/05/25 06:24:10;;;;;;;;;;;;;;;;;;5012123;28;20338;-67
2022/05/25 06:26:36;;;;;;;;;;;;;;;;;;5012087;28;19929;-68
2022/05/25 06:29:01;;;;;;;;;;;;;;;;;;5011363;28;19910;-68
2022/05/25 06:31:27;;;;;;;;;;;;;;;;;;5011530;28;20003;-64
2022/05/25 06:33:53;;;;;;;;;;;;;;;;;;5010792;28;19910;-63
2022/05/25 06:36:19;;;;;;;;;;;;;;;;;;5011614;28;19910;-66
2022/05/25 06:38:45;;;;;;;;;;;;;;;;;;5010989;28;19917;-68
2022/05/25 06:41:11;;;;;;;;;;;;;;;;;;5011484;28;20333;-66
2022/05/25 06:43:37;;;;;;;;;;;;;;;;;;5011316;28;20251;-68
2022/05/25 06:46:03;;;;;;;;;;;;;;;;;;5011327;28;19910;-69
2022/05/25 06:48:29;;;;;;;;;;;;;;;;;;5010765;28;19906;-69
2022/05/25 06:50:55;;;;;;;;;;;;;;;;;;5011068;28;20048;-70
2022/05/25 06:53:21;;;;;;;;;;;;;;;;;;5011206;28;20351;-67
2022/05/25 06:55:47;;;;;;;;;;;;;;;;;;5010902;28;19918;-66
2022/05/25 06:58:13;;;;;;;;;;;;;;;;;;5011012;28;19910;-67
2022/05/25 07:00:39;;;;;;;;;;;;;;;;;;5010601;28;19918;-67
2022/05/25 07:03:06;;;;;;;;;;;;;;;;;;5011016;28;19909;-64
2022/05/25 07:05:32;;;;;;;;;;;;;;;;;;5010972;28;19945;-70
2022/05/25 07:07:58;;;;;;;;;;;;;;;;;;5010933;28;19917;-65
2022/05/25 07:10:24;;;;;;;;;;;;;;;;;;5010454;28;19910;-66
2022/05/25 07:12:50;;;;;;;;;;;;;;;;;;5010803;28;20004;-68
2022/05/25 07:15:16;;;;;;;;;;;;;;;;;;5010896;28;19943;-69
2022/05/25 07:17:42;;;;;;;;;;;;;;;;;;5010651;28;19918;-69
2022/05/25 07:20:09;;;;;;;;;;;;;;;;;;5010242;28;19909;-69
2022/05/25 07:22:35;;;;;;;;;;;;;;;;;;5010661;28;19910;-69
2022/05/25 07:25:01;;;;;;;;;;;;;;;;;;5010720;28;19910;-70
2022/05/25 07:27:27;;;;;;;;;;;;;;;;;;5010575;28;19913;-69
2022/05/25 07:29:53;;;;;;;;;;;;;;;;;;4995009;28;20366;-71
2022/05/25 07:32:19;;;;;;;;;;;;;;;;;;5010309;28;20044;-69
2022/05/25 07:34:45;;;;;;;;;;;;;;;;;;5010416;28;19949;-71
2022/05/25 07:37:11;;;;;;;;;;;;;;;;;;5010439;28;20385;-69
2022/05/25 07:39:39;;;;;;;;;;;;;;;;;;5009897;28;20275;-68
2022/05/25 07:42:05;;;;;;;;;;;;;;;;;;5010312;28;19957;-68
2022/05/25 07:44:31;;;;;;;;;;;;;;;;;;5010112;28;19914;-70
2022/05/25 07:46:57;;;;;;;;;;;;;;;;;;5010152;28;19909;-71
2022/05/25 07:49:23;;;;;;;;;;;;;;;;;;5009711;28;19910;-69
2022/05/25 07:51:49;;;;;;;;;;;;;;;;;;5010054;28;19913;-68
2022/05/25 07:54:15;;;;;;;;;;;;;;;;;;5010170;28;19910;-67
2022/05/25 07:56:41;;;;;;;;;;;;;;;;;;5009956;28;19918;-66
2022/05/25 07:59:07;;;;;;;;;;;;;;;;;;5009509;28;19992;-67
2022/05/25 08:07:02;;;;;;;;;;;;;;;;;;4994884;28;19920;-68
2022/05/25 08:09:28;;;;;;;;;;;;;;;;;;5009564;28;19928;-71
2022/05/25 08:11:54;;;;;;;;;;;;;;;;;;5009813;28;19961;-70
2022/05/25 08:14:20;;;;;;;;;;;;;;;;;;5009822;28;19910;-68
2022/05/25 08:16:46;;;;;;;;;;;;;;;;;;5009899;28;19912;-70
2022/05/25 08:19:12;;;;;;;;;;;;;;;;;;5009326;28;19945;-67
2022/05/25 08:21:38;;;;;;;;;;;;;;;;;;5009612;28;19921;-69
2022/05/25 08:24:04;;;;;;;;;;;;;;;;;;4994497;28;19917;-69
2022/05/25 08:26:30;;;;;;;;;;;;;;;;;;5009480;28;19910;-65
2022/05/25 08:28:56;;;;;;;;;;;;;;;;;;5009017;28;20322;-69
2022/05/25 08:31:22;;;;;;;;;;;;;;;;;;5009383;28;19974;-67
2022/05/25 08:33:48;;;;;;;;;;;;;;;;;;5009426;28;19964;-69
2022/05/25 08:36:14;;;;;;;;;;;;;;;;;;5009499;28;19910;-66
2022/05/25 08:38:40;;;;;;;;;;;;;;;;;;5009032;28;19914;-70
2022/05/25 08:41:06;;;;;;;;;;;;;;;;;;5009559;28;19960;-68
2022/05/25 08:43:32;;;;;;;;;;;;;;;;;;5009514;28;19906;-67
2022/05/25 08:45:58;;;;;;;;;;;;;;;;;;4994293;28;20425;-68
2022/05/25 08:48:24;;;;;;;;;;;;;;;;;;5008932;28;20244;-70
2022/05/25 08:50:50;;;;;;;;;;;;;;;;;;5009072;28;20333;-70
2022/05/25 08:53:16;;;;;;;;;;;;;;;;;;4994146;28;19918;-68
2022/05/25 08:55:42;;;;;;;;;;;;;;;;;;5008873;28;19941;-67
2022/05/25 08:58:08;;;;;;;;;;;;;;;;;;5008565;28;19910;-67
2022/05/25 09:00:34;;;;;;;;;;;;;;;;;;4993528;28;19913;-70
2022/05/25 09:03:00;;;;;;;;;;;;;;;;;;5009017;28;19917;-67
2022/05/25 09:05:26;;;;;;;;;;;;;;;;;;5009239;28;19914;-69
2022/05/25 09:07:53;;;;;;;;;;;;;;;;;;5008864;28;19910;-71
2022/05/25 09:10:19;;;;;;;;;;;;;;;;;;5007961;28;19914;-68
2022/05/25 09:12:45;;;;;;;;;;;;;;;;;;5008015;28;19957;-68
2022/05/25 09:15:11;;;;;;;;;;;;;;;;;;5008297;28;19914;-67
2022/05/25 09:17:37;;;;;;;;;;;;;;;;;;5008182;28;19910;-68
2022/05/25 09:20:02;;;;;;;;;;;;;;;;;;5007865;28;19910;-70
2022/05/25 09:22:31;;;;;;;;;;;;;;;;;;5008232;28;19968;-68
2022/05/25 09:24:57;;;;;;;;;;;;;;;;;;5008638;28;20359;-67
2022/05/25 09:27:23;;;;;;;;;;;;;;;;;;5008687;28;19910;-67
2022/05/25 09:29:49;;;;;;;;;;;;;;;;;;5008240;28;19941;-67
2022/05/25 09:32:15;;;;;;;;;;;;;;;;;;5008633;28;19961;-66
2022/05/25 09:34:41;;;;;;;;;;;;;;;;;;5008570;28;19910;-69
2022/05/25 09:37:09;;;;;;;;;;;;;;;;;;5008689;28;19914;-68
2022/05/25 09:39:36;;;;;;;;;;;;;;;;;;5008312;28;19960;-70
2022/05/25 09:42:02;;;;;;;;;;;;;;;;;;5008501;28;19953;-71
2022/05/25 09:44:28;;;;;;;;;;;;;;;;;;5008538;28;20378;-70
2022/05/25 09:46:54;;;;;;;;;;;;;;;;;;5008534;28;19910;-68
2022/05/25 09:49:20;;;;;;;;;;;;;;;;;;5008104;28;20428;-67
2022/05/25 09:51:46;;;;;;;;;;;;;;;;;;5018519;28;20390;-69
2022/05/25 09:54:12;;;;;;;;;;;;;;;;;;5028561;28;19921;-67
2022/05/25 09:56:39;;;;;;;;;;;;;;;;;;5028428;28;19921;-66
2022/05/25 09:59:06;;;;;;;;;;;;;;;;;;5012714;28;19916;-68
2022/05/25 10:01:32;;;;;;;;;;;;;;;;;;5028378;28;19909;-69
2022/05/25 10:03:58;;;;;;;;;;;;;;;;;;5028371;28;20351;-66
2022/05/25 10:06:24;;;;;;;;;;;;;;;;;;5028349;28;19916;-65
2022/05/25 10:08:50;;;;;;;;;;;;;;;;;;5028501;28;19909;-71
2022/05/25 10:11:27;;;;;;;;;;;;;;;;;;5031823;28;19916;-65
2022/05/25 10:13:53;;;;;;;;;;;;;;;;;;5031774;28;19909;-66
2022/05/25 10:16:19;;;;;;;;;;;;;;;;;;5031718;28;19963;-67
2022/05/25 10:18:45;;;;;;;;;;;;;;;;;;5031147;28;19917;-70
2022/05/25 10:21:11;;;;;;;;;;;;;;;;;;5031735;28;19931;-67
2022/05/25 10:23:37;;;;;;;;;;;;;;;;;;5031663;28;19909;-69
2022/05/25 10:26:03;;;;;;;;;;;;;;;;;;5031609;28;19921;-70
2022/05/25 10:28:29;;;;;;;;;;;;;;;;;;5031139;28;19913;-66
2022/05/25 10:39:09;;;;;;;;;;;;;;;;;;5015567;28;19964;-70
2022/05/25 10:41:39;;;;;;;;;;;;;;;;;;5031258;28;19914;-69
2022/05/25 10:44:05;;;;;;;;;;;;;;;;;;5031261;28;19944;-69
2022/05/25 10:46:31;;;;;;;;;;;;;;;;;;5031136;28;20000;-69
2022/05/25 10:48:57;;;;;;;;;;;;;;;;;;5030623;28;20051;-69
2022/05/25 10:51:23;;;;;;;;;;;;;;;;;;5031238;28;19925;-66
2022/05/25 10:54:44;;;;;;;;;;;;;;;;;;5015843;28;19913;-66
2022/05/25 10:56:38;;;;;;;;;;;;;;;;;;5015525;28;20004;-69
2022/05/25 10:59:04;;;;;;;;;;;;;;;;;;5030298;28;20355;-68
2022/05/25 11:01:30;;;;;;;;;;;;;;;;;;5027287;28;19921;-68
2022/05/25 11:03:56;;;;;;;;;;;;;;;;;;5014831;28;19913;-66
2022/05/25 11:06:23;;;;;;;;;;;;;;;;;;5028842;28;19960;-68
2022/05/25 11:08:49;;;;;;;;;;;;;;;;;;5030167;28;19921;-67
2022/05/25 11:11:15;;;;;;;;;;;;;;;;;;5015456;28;20399;-66
2022/05/25 11:13:41;;;;;;;;;;;;;;;;;;5030698;28;19985;-70
2022/05/25 11:16:07;;;;;;;;;;;;;;;;;;5030619;28;19909;-69
2022/05/25 11:18:33;;;;;;;;;;;;;;;;;;5030034;28;19912;-69
2022/05/25 11:20:59;;;;;;;;;;;;;;;;;;5030035;28;19913;-70
2022/05/25 11:23:25;;;;;;;;;;;;;;;;;;5030579;28;19917;-66
2022/05/25 11:25:51;;;;;;;;;;;;;;;;;;5030730;28;19909;-67
2022/05/25 11:28:17;;;;;;;;;;;;;;;;;;5015294;28;19964;-65
2022/05/25 11:30:43;;;;;;;;;;;;;;;;;;5029945;28;19910;-64
2022/05/25 11:33:09;;;;;;;;;;;;;;;;;;5030257;28;19952;-72
2022/05/25 11:35:35;;;;;;;;;;;;;;;;;;5030380;28;19959;-73
2022/05/25 11:38:01;;;;;;;;;;;;;;;;;;5030197;28;20004;-71
2022/05/25 11:40:27;;;;;;;;;;;;;;;;;;5029855;28;19910;-72
2022/05/25 11:42:53;;;;;;;;;;;;;;;;;;5030215;28;19916;-72
2022/05/25 11:45:19;;;;;;;;;;;;;;;;;;5014928;28;19913;-72
2022/05/25 11:47:45;;;;;;;;;;;;;;;;;;5029944;28;20288;-72
2022/05/25 11:50:11;;;;;;;;;;;;;;;;;;5029646;28;19913;-73
2022/05/25 11:52:37;;;;;;;;;;;;;;;;;;5029994;28;19913;-72
2022/05/25 11:55:03;;;;;;;;;;;;;;;;;;5029842;28;19920;-73
2022/05/25 11:57:29;;;;;;;;;;;;;;;;;;5029714;28;19909;-73
2022/05/25 11:59:55;;;;;;;;;;;;;;;;;;5029273;28;20001;-73
2022/05/25 12:02:21;;;;;;;;;;;;;;;;;;5029569;28;20391;-72
2022/05/25 12:04:48;;;;;;;;;;;;;;;;;;5014430;28;19909;-73
2022/05/25 12:07:14;;;;;;;;;;;;;;;;;;5029592;28;19917;-72
2022/05/25 12:09:39;;;;;;;;;;;;;;;;;;5029238;28;19914;-74
2022/05/25 12:12:07;;;;;;;;;;;;;;;;;;5029596;28;19964;-71
2022/05/25 12:14:34;;;;;;;;;;;;;;;;;;5029586;28;19979;-74
2022/05/25 12:17:00;;;;;;;;;;;;;;;;;;5029496;28;19917;-72
2022/05/25 12:19:26;;;;;;;;;;;;;;;;;;5029082;28;19909;-72
2022/05/25 12:21:52;;;;;;;;;;;;;;;;;;5029456;28;19916;-72
2022/05/25 12:24:18;;;;;;;;;;;;;;;;;;5029536;28;19992;-73
2022/05/25 12:26:44;;;;;;;;;;;;;;;;;;5029507;28;20287;-72
2022/05/25 12:29:10;;;;;;;;;;;;;;;;;;5028936;28;19932;-73
2022/05/25 12:31:36;;;;;;;;;;;;;;;;;;5028437;28;19954;-72
2022/05/25 12:34:02;;;;;;;;;;;;;;;;;;5029237;28;19913;-73
2022/05/25 12:36:28;;;;;;;;;;;;;;;;;;5029221;28;19909;-71
2022/05/25 12:38:54;;;;;;;;;;;;;;;;;;5028845;28;19915;-73
2022/05/25 12:41:21;;;;;;;;;;;;;;;;;;5029176;28;19910;-73
2022/05/25 12:43:47;;;;;;;;;;;;;;;;;;5029140;28;19910;-73
2022/05/25 12:48:58;;;;;;;;;;;;;;;;;;5013440;28;19916;-74
2022/05/25 12:51:24;;;;;;;;;;;;;;;;;;5028971;28;19909;-73
2022/05/25 12:53:49;;;;;;;;;;;;;;;;;;5029084;28;19921;-71
2022/05/25 12:56:15;;;;;;;;;;;;;;;;;;5028984;28;19918;-73
2022/05/25 12:58:41;;;;;;;;;;;;;;;;;;5028448;28;19964;-73
2022/05/25 13:01:07;;;;;;;;;;;;;;;;;;5029032;28;19917;-74
2022/05/25 13:03:34;;;;;;;;;;;;;;;;;;5029061;28;20533;-73
2022/05/25 13:06:02;;;;;;;;;;;;;;;;;;5028947;28;20619;-74
2022/05/25 13:08:28;;;;;;;;;;;;;;;;;;5028428;28;19921;-72
2022/05/25 13:10:54;;;;;;;;;;;;;;;;;;5028830;28;19910;-72
2022/05/25 13:13:20;;;;;;;;;;;;;;;;;;5028762;28;19968;-72
2022/05/25 13:15:46;;;;;;;;;;;;;;;;;;5013835;28;19910;-74
2022/05/25 13:18:12;;;;;;;;;;;;;;;;;;5028546;28;20362;-73
2022/05/25 13:20:47;;;;;;;;;;;;;;;;;;5028463;28;19939;-73
2022/05/25 13:23:13;;;;;;;;;;;;;;;;;;5028841;28;19916;-72
2022/05/25 13:25:39;;;;;;;;;;;;;;;;;;5028775;28;19913;-72
2022/05/25 13:28:09;;;;;;;;;;;;;;;;;;5028792;28;19916;-73
2022/05/25 13:30:35;;;;;;;;;;;;;;;;;;5028334;28;19916;-73
2022/05/25 13:33:01;;;;;;;;;;;;;;;;;;5028494;28;20019;-71
2022/05/25 13:35:27;;;;;;;;;;;;;;;;;;5028642;28;19917;-72
2022/05/25 13:37:53;;;;;;;;;;;;;;;;;;5028744;28;20008;-72
2022/05/25 13:40:19;;;;;;;;;;;;;;;;;;5028000;28;19921;-72
2022/05/25 13:42:45;;;;;;;;;;;;;;;;;;5029205;28;20000;-71
2022/05/25 13:45:11;;;;;;;;;;;;;;;;;;5032167;28;19910;-71
2022/05/25 13:47:37;;;;;;;;;;;;;;;;;;5032250;28;19916;-71
2022/05/25 13:50:03;;;;;;;;;;;;;;;;;;5031713;28;19909;-71
2022/05/25 13:52:29;;;;;;;;;;;;;;;;;;5032081;28;20418;-71
2022/05/25 13:54:55;;;;;;;;;;;;;;;;;;5032065;28;20278;-72
2022/05/25 13:57:21;;;;;;;;;;;;;;;;;;5031992;28;19917;-72
2022/05/25 13:59:47;;;;;;;;;;;;;;;;;;5031607;28;19940;-72
2022/05/25 14:02:13;;;;;;;;;;;;;;;;;;5031939;28;19909;-71
2022/05/25 14:04:39;;;;;;;;;;;;;;;;;;5031841;28;19921;-74
2022/05/25 14:07:05;;;;;;;;;;;;;;;;;;5031766;28;19932;-70
2022/05/25 14:12:18;;;;;;;;;;;;;;;;;;5016496;28;19920;-69
2022/05/25 14:14:44;;;;;;;;;;;;;;;;;;5019431;28;20366;-70
2022/05/25 14:17:10;;;;;;;;;;;;;;;;;;5032622;28;20278;-71
2022/05/25 14:19:37;;;;;;;;;;;;;;;;;;5020770;28;20385;-70
2022/05/25 14:22:03;;;;;;;;;;;;;;;;;;5006159;28;19920;-70
2022/05/25 14:24:29;;;;;;;;;;;;;;;;;;5023738;28;20265;-70
2022/05/25 14:26:55;;;;;;;;;;;;;;;;;;5025940;28;19932;-70
2022/05/25 14:29:21;;;;;;;;;;;;;;;;;;4994898;28;19910;-70
2022/05/25 14:31:47;;;;;;;;;;;;;;;;;;4995180;28;19921;-70
2022/05/25 14:34:13;;;;;;;;;;;;;;;;;;4995302;28;19910;-70
2022/05/25 14:36:39;;;;;;;;;;;;;;;;;;5006227;28;19921;-70
2022/05/25 14:39:05;;;;;;;;;;;;;;;;;;5015489;28;19909;-71
2022/05/25 14:41:33;;;;;;;;;;;;;;;;;;5016860;28;19910;-70
2022/05/25 14:44:00;;;;;;;;;;;;;;;;;;5011381;28;19918;-70
2022/05/25 14:46:26;;;;;;;;;;;;;;;;;;5011695;28;19918;-70
2022/05/25 14:48:55;;;;;;;;;;;;;;;;;;5011003;28;19917;-70
2022/05/25 14:51:21;;;;;;;;;;;;;;;;;;5011255;28;20248;-70
2022/05/25 14:53:48;;;;;;;;;;;;;;;;;;5011048;28;20247;-70
2022/05/25 14:56:14;;;;;;;;;;;;;;;;;;5010611;28;20274;-70
2022/05/25 14:58:41;;;;;;;;;;;;;;;;;;5021391;28;19922;-70
2022/05/25 15:01:07;;;;;;;;;;;;;;;;;;5030647;28;19932;-73
2022/05/25 15:03:33;;;;;;;;;;;;;;;;;;5030590;28;19996;-70
2022/05/25 15:05:59;;;;;;;;;;;;;;;;;;5016271;28;20457;-70
2022/05/25 15:08:27;;;;;;;;;;;;;;;;;;4995620;28;19974;-70
2022/05/25 15:10:54;;;;;;;;;;;;;;;;;;5010952;28;19910;-71
2022/05/25 15:13:20;;;;;;;;;;;;;;;;;;5017244;28;20302;-70
2022/05/25 15:18:31;;;;;;;;;;;;;;;;;;5000688;28;19932;-70
2022/05/25 15:20:57;;;;;;;;;;;;;;;;;;5027408;28;19913;-70
2022/05/25 15:23:23;;;;;;;;;;;;;;;;;;5010275;28;19997;-70
2022/05/25 15:25:49;;;;;;;;;;;;;;;;;;5016019;28;19945;-70
2022/05/25 15:28:15;;;;;;;;;;;;;;;;;;5025388;28;19913;-70
2022/05/25 15:30:41;;;;;;;;;;;;;;;;;;5013501;28;19963;-70
2022/05/25 15:33:08;;;;;;;;;;;;;;;;;;5013787;28;19913;-70
2022/05/25 15:35:34;;;;;;;;;;;;;;;;;;5013776;28;19939;-66
2022/05/25 15:38:00;;;;;;;;;;;;;;;;;;5013619;28;19914;-64
2022/05/25 15:40:26;;;;;;;;;;;;;;;;;;5013085;28;19916;-67
2022/05/25 15:42:52;;;;;;;;;;;;;;;;;;5013523;28;20000;-64
2022/05/25 15:45:19;;;;;;;;;;;;;;;;;;5013692;28;20321;-67
2022/05/25 15:47:45;;;;;;;;;;;;;;;;;;5013505;28;20278;-66
2022/05/25 15:50:11;;;;;;;;;;;;;;;;;;5013056;28;19910;-67
2022/05/25 15:52:37;;;;;;;;;;;;;;;;;;5013273;28;19919;-66
2022/05/25 15:55:03;;;;;;;;;;;;;;;;;;5013358;28;19960;-68
2022/05/25 15:57:29;;;;;;;;;;;;;;;;;;5013377;28;19909;-67
2022/05/25 15:59:55;;;;;;;;;;;;;;;;;;5012853;28;19964;-64
2022/05/25 16:02:20;;;;;;;;;;;;;;;;;;5013201;28;19948;-66
2022/05/25 16:04:46;;;;;;;;;;;;;;;;;;5013219;28;19960;-68
2022/05/25 16:07:12;;;;;;;;;;;;;;;;;;5013168;28;19916;-66
2022/05/25 16:09:38;;;;;;;;;;;;;;;;;;5012737;28;19906;-66
2022/05/25 16:12:04;;;;;;;;;;;;;;;;;;5014464;28;19956;-65
2022/05/25 16:14:30;;;;;;;;;;;;;;;;;;5013100;28;20354;-65
2022/05/25 16:16:56;;;;;;;;;;;;;;;;;;5013004;28;20328;-66
2022/05/25 16:19:22;;;;;;;;;;;;;;;;;;5012443;28;19945;-66
2022/05/25 16:21:48;;;;;;;;;;;;;;;;;;5012849;28;20413;-67
2022/05/25 16:24:14;;;;;;;;;;;;;;;;;;5012881;28;20362;-66
2022/05/25 16:26:40;;;;;;;;;;;;;;;;;;5012918;28;20275;-65
2022/05/25 16:29:06;;;;;;;;;;;;;;;;;;5012371;28;19914;-66
2022/05/25 16:31:32;;;;;;;;;;;;;;;;;;5012659;28;20333;-68
2022/05/25 16:33:58;;;;;;;;;;;;;;;;;;5012798;28;19933;-66
2022/05/25 16:36:24;;;;;;;;;;;;;;;;;;5012668;28;20350;-68
2022/05/25 16:38:52;;;;;;;;;;;;;;;;;;5012271;28;20262;-65
2022/05/25 16:41:18;;;;;;;;;;;;;;;;;;5012643;28;19971;-65
2022/05/25 16:43:44;;;;;;;;;;;;;;;;;;5012518;28;19909;-65
2022/05/25 16:46:11;;;;;;;;;;;;;;;;;;5012693;28;19910;-68
2022/05/25 16:48:36;;;;;;;;;;;;;;;;;;5012214;28;19913;-67
2022/05/25 16:51:02;;;;;;;;;;;;;;;;;;5012425;28;19910;-65
2022/05/25 16:53:28;;;;;;;;;;;;;;;;;;5012394;28;20011;-68
2022/05/25 16:55:54;;;;;;;;;;;;;;;;;;5012429;28;19917;-67
2022/05/25 16:58:20;;;;;;;;;;;;;;;;;;5012274;28;19910;-67
2022/05/25 17:00:47;;;;;;;;;;;;;;;;;;5012187;28;19910;-67
2022/05/25 17:03:14;;;;;;;;;;;;;;;;;;5012036;28;19910;-64
2022/05/25 17:05:39;;;;;;;;;;;;;;;;;;5009917;28;19917;-65
2022/05/25 17:08:05;;;;;;;;;;;;;;;;;;5009126;28;19909;-75
2022/05/25 17:10:31;;;;;;;;;;;;;;;;;;5008663;28;19913;-74